sensor_id;sensor_type;location;lat;lon;timestamp;pressure;altitude;pressure_sealevel;temperature;humidity
52983;BME280;48698;45.736;13.926;2022-11-02T00:02:28;98342.50;;;12.10;100.00
52983;BME280;48698;45.736;13.926;2022-11-02T00:07:32;98254.97;;;11.46;100.00
52983;BME280;48698;45.736;13.926;2022-11-02T00:12:37;98316.09;;;11.86;100.00
52983;BME280;48698;45.736;13.926;2022-11-02T00:17:46;98368.59;;;12.22;100.00
52983;BME280;48698;45.736;13.926;2022-11-02T00:22:52;98397.03;;;12.40;100.00
52983;BME280;48698;45.736;13.926;2022-11-02T00:27:58;98338.44;;;12.03;100.00
52983;BME280;48698;45.736;13.926;2022-11-02T00:33:02;98346.91;;;12.11;100.00
52983;BME280;48698;45.736;13.926;2022-11-02T00:38:06;98390.13;;;12.36;100.00
52983;BME280;48698;45.736;13.926;2022-11-02T00:43:10;98407.03;;;12.35;100.00
52983;BME280;48698;45.736;13.926;2022-11-02T00:48:14;98361.56;;;12.01;100.00
52983;BME280;48698;45.736;13.926;2022-11-02T00:53:18;98171.53;;;10.89;100.00
52983;BME280;48698;45.736;13.926;2022-11-02T00:58:21;98336.72;;;11.61;100.00
52983;BME280;48698;45.736;13.926;2022-11-02T01:03:25;98384.31;;;11.89;100.00
52983;BME280;48698;45.736;13.926;2022-11-02T01:08:31;98363.94;;;11.88;100.00
52983;BME280;48698;45.736;13.926;2022-11-02T01:13:35;98238.94;;;11.07;100.00
52983;BME280;48698;45.736;13.926;2022-11-02T01:18:39;98406.31;;;12.13;100.00
52983;BME280;48698;45.736;13.926;2022-11-02T01:23:43;98392.22;;;11.90;100.00
52983;BME280;48698;45.736;13.926;2022-11-02T01:28:47;98391.34;;;11.90;100.00
52983;BME280;48698;45.736;13.926;2022-11-02T01:33:50;98165.94;;;10.55;100.00
52983;BME280;48698;45.736;13.926;2022-11-02T01:38:54;98205.63;;;10.80;100.00
52983;BME280;48698;45.736;13.926;2022-11-02T01:44:02;98295.00;;;11.23;100.00
52983;BME280;48698;45.736;13.926;2022-11-02T01:49:17;98361.59;;;11.60;100.00
52983;BME280;48698;45.736;13.926;2022-11-02T01:54:24;98366.91;;;11.60;100.00
52983;BME280;48698;45.736;13.926;2022-11-02T01:59:36;98319.38;;;11.32;100.00
52983;BME280;48698;45.736;13.926;2022-11-02T02:04:41;98311.66;;;11.06;100.00
52983;BME280;48698;45.736;13.926;2022-11-02T02:09:45;98379.41;;;11.38;100.00
52983;BME280;48698;45.736;13.926;2022-11-02T02:14:53;98265.75;;;10.61;100.00
52983;BME280;48698;45.736;13.926;2022-11-02T02:30:39;98369.16;;;11.09;100.00
52983;BME280;48698;45.736;13.926;2022-11-02T02:41:46;98157.88;;;9.71;100.00
52983;BME280;48698;45.736;13.926;2022-11-02T02:47:16;98298.00;;;10.30;100.00
52983;BME280;48698;45.736;13.926;2022-11-02T02:52:22;98338.03;;;10.47;100.00
52983;BME280;48698;45.736;13.926;2022-11-02T02:57:29;98365.34;;;10.72;100.00
52983;BME280;48698;45.736;13.926;2022-11-02T03:02:35;98291.84;;;9.83;100.00
52983;BME280;48698;45.736;13.926;2022-11-02T03:07:40;98211.53;;;9.56;100.00
52983;BME280;48698;45.736;13.926;2022-11-02T03:12:49;98329.38;;;10.42;100.00
52983;BME280;48698;45.736;13.926;2022-11-02T03:18:15;98349.94;;;10.80;100.00
52983;BME280;48698;45.736;13.926;2022-11-02T03:23:34;98361.56;;;11.00;100.00
52983;BME280;48698;45.736;13.926;2022-11-02T03:39:10;98154.81;;;9.60;100.00
52983;BME280;48698;45.736;13.926;2022-11-02T03:44:19;98283.00;;;10.06;100.00
52983;BME280;48698;45.736;13.926;2022-11-02T03:49:27;98321.66;;;10.58;100.00
52983;BME280;48698;45.736;13.926;2022-11-02T03:59:39;98315.97;;;10.23;100.00
52983;BME280;48698;45.736;13.926;2022-11-02T04:04:52;98359.28;;;10.47;100.00
52983;BME280;48698;45.736;13.926;2022-11-02T04:09:57;98278.50;;;9.84;100.00
52983;BME280;48698;45.736;13.926;2022-11-02T04:15:00;98361.59;;;10.33;100.00
52983;BME280;48698;45.736;13.926;2022-11-02T04:20:04;98264.09;;;9.45;100.00
52983;BME280;48698;45.736;13.926;2022-11-02T04:25:18;98324.69;;;9.80;100.00
52983;BME280;48698;45.736;13.926;2022-11-02T04:30:22;98353.47;;;10.14;100.00
52983;BME280;48698;45.736;13.926;2022-11-02T04:35:26;98353.00;;;10.26;100.00
52983;BME280;48698;45.736;13.926;2022-11-02T04:40:30;98109.25;;;8.58;100.00
52983;BME280;48698;45.736;13.926;2022-11-02T04:45:34;98218.59;;;9.09;100.00
52983;BME280;48698;45.736;13.926;2022-11-02T04:50:38;98127.78;;;8.58;100.00
52983;BME280;48698;45.736;13.926;2022-11-02T04:55:45;98255.84;;;9.29;100.00
52983;BME280;48698;45.736;13.926;2022-11-02T05:00:48;98281.06;;;9.41;100.00
52983;BME280;48698;45.736;13.926;2022-11-02T05:05:53;98350.84;;;9.66;100.00
52983;BME280;48698;45.736;13.926;2022-11-02T05:10:58;98206.72;;;8.71;100.00
52983;BME280;48698;45.736;13.926;2022-11-02T05:16:02;98324.38;;;9.40;100.00
52983;BME280;48698;45.736;13.926;2022-11-02T05:21:08;98357.59;;;9.50;100.00
52983;BME280;48698;45.736;13.926;2022-11-02T05:26:23;98242.16;;;8.92;100.00
52983;BME280;48698;45.736;13.926;2022-11-02T05:31:26;98333.13;;;9.42;100.00
52983;BME280;48698;45.736;13.926;2022-11-02T05:36:37;98325.56;;;9.07;100.00
52983;BME280;48698;45.736;13.926;2022-11-02T05:41:41;98313.88;;;8.88;100.00
52983;BME280;48698;45.736;13.926;2022-11-02T05:46:44;98275.00;;;8.62;100.00
52983;BME280;48698;45.736;13.926;2022-11-02T05:51:46;98233.34;;;8.13;100.00
52983;BME280;48698;45.736;13.926;2022-11-02T05:56:51;98336.88;;;8.59;100.00
52983;BME280;48698;45.736;13.926;2022-11-02T06:01:54;98132.50;;;7.69;100.00
52983;BME280;48698;45.736;13.926;2022-11-02T06:06:56;98376.50;;;8.89;100.00
52983;BME280;48698;45.736;13.926;2022-11-02T06:11:59;98176.84;;;7.61;100.00
52983;BME280;48698;45.736;13.926;2022-11-02T06:17:02;98174.84;;;7.96;100.00
52983;BME280;48698;45.736;13.926;2022-11-02T06:22:05;98182.19;;;7.86;100.00
52983;BME280;48698;45.736;13.926;2022-11-02T06:27:07;98339.31;;;8.65;100.00
52983;BME280;48698;45.736;13.926;2022-11-02T06:32:10;98400.00;;;9.25;100.00
52983;BME280;48698;45.736;13.926;2022-11-02T06:37:13;98188.13;;;8.20;100.00
52983;BME280;48698;45.736;13.926;2022-11-02T06:42:16;98183.16;;;7.84;100.00
52983;BME280;48698;45.736;13.926;2022-11-02T06:47:18;98215.94;;;8.06;100.00
52983;BME280;48698;45.736;13.926;2022-11-02T06:52:21;98333.75;;;8.99;100.00
52983;BME280;48698;45.736;13.926;2022-11-02T06:57:24;98392.75;;;9.55;100.00
52983;BME280;48698;45.736;13.926;2022-11-02T07:02:27;98432.50;;;9.81;100.00
52983;BME280;48698;45.736;13.926;2022-11-02T07:07:30;98339.72;;;9.55;100.00
52983;BME280;48698;45.736;13.926;2022-11-02T07:12:33;98353.66;;;9.85;100.00
52983;BME280;48698;45.736;13.926;2022-11-02T07:17:39;98342.81;;;10.16;100.00
52983;BME280;48698;45.736;13.926;2022-11-02T07:22:57;98310.47;;;10.28;100.00
52983;BME280;48698;45.736;13.926;2022-11-02T07:28:03;98397.97;;;10.76;100.00
52983;BME280;48698;45.736;13.926;2022-11-02T07:33:06;98365.88;;;10.80;100.00
52983;BME280;48698;45.736;13.926;2022-11-02T07:38:09;98352.72;;;10.77;100.00
52983;BME280;48698;45.736;13.926;2022-11-02T07:43:12;98320.47;;;10.65;100.00
52983;BME280;48698;45.736;13.926;2022-11-02T07:48:15;98426.63;;;11.33;100.00
52983;BME280;48698;45.736;13.926;2022-11-02T07:53:18;98489.22;;;11.83;100.00
52983;BME280;48698;45.736;13.926;2022-11-02T07:58:21;98393.28;;;11.66;100.00
52983;BME280;48698;45.736;13.926;2022-11-02T08:03:28;98481.53;;;12.36;100.00
52983;BME280;48698;45.736;13.926;2022-11-02T08:08:31;98356.66;;;11.73;100.00
52983;BME280;48698;45.736;13.926;2022-11-02T08:13:36;98456.16;;;12.48;100.00
52983;BME280;48698;45.736;13.926;2022-11-02T08:18:46;98479.44;;;12.82;100.00
52983;BME280;48698;45.736;13.926;2022-11-02T08:23:48;98371.13;;;12.25;100.00
52983;BME280;48698;45.736;13.926;2022-11-02T08:28:58;98395.13;;;12.79;100.00
52983;BME280;48698;45.736;13.926;2022-11-02T08:34:01;98402.75;;;13.24;100.00
52983;BME280;48698;45.736;13.926;2022-11-02T08:39:03;98391.69;;;13.49;100.00
52983;BME280;48698;45.736;13.926;2022-11-02T08:44:06;98315.66;;;13.23;100.00
52983;BME280;48698;45.736;13.926;2022-11-02T08:49:09;98456.34;;;14.40;100.00
52983;BME280;48698;45.736;13.926;2022-11-02T08:54:12;98425.31;;;14.37;100.00
52983;BME280;48698;45.736;13.926;2022-11-02T08:59:15;98226.41;;;13.46;100.00
52983;BME280;48698;45.736;13.926;2022-11-02T09:04:18;98261.63;;;13.85;100.00
52983;BME280;48698;45.736;13.926;2022-11-02T09:09:20;98312.06;;;14.40;100.00
52983;BME280;48698;45.736;13.926;2022-11-02T09:14:23;98401.91;;;15.05;100.00
52983;BME280;48698;45.736;13.926;2022-11-02T09:19:26;98393.69;;;15.24;100.00
52983;BME280;48698;45.736;13.926;2022-11-02T09:24:29;98385.06;;;15.94;100.00
52983;BME280;48698;45.736;13.926;2022-11-02T09:29:31;98205.06;;;15.31;100.00
52983;BME280;48698;45.736;13.926;2022-11-02T09:34:34;98371.84;;;16.47;100.00
52983;BME280;48698;45.736;13.926;2022-11-02T09:39:37;98401.75;;;16.56;100.00
52983;BME280;48698;45.736;13.926;2022-11-02T09:44:52;98403.38;;;16.72;100.00
52983;BME280;48698;45.736;13.926;2022-11-02T09:49:59;98363.78;;;16.76;100.00
52983;BME280;48698;45.736;13.926;2022-11-02T09:55:14;98377.44;;;17.53;100.00
52983;BME280;48698;45.736;13.926;2022-11-02T10:00:19;98297.03;;;16.98;100.00
52983;BME280;48698;45.736;13.926;2022-11-02T10:05:46;98363.13;;;17.13;100.00
52983;BME280;48698;45.736;13.926;2022-11-02T10:11:06;98281.59;;;16.34;100.00
52983;BME280;48698;45.736;13.926;2022-11-02T10:16:18;98331.88;;;16.85;100.00
52983;BME280;48698;45.736;13.926;2022-11-02T10:21:26;98329.41;;;16.68;100.00
52983;BME280;48698;45.736;13.926;2022-11-02T10:26:33;98192.66;;;16.54;100.00
52983;BME280;48698;45.736;13.926;2022-11-02T10:31:37;98324.28;;;17.71;100.00
52983;BME280;48698;45.736;13.926;2022-11-02T10:42:51;98237.66;;;17.42;100.00
52983;BME280;48698;45.736;13.926;2022-11-02T10:48:07;98143.72;;;16.77;100.00
52983;BME280;48698;45.736;13.926;2022-11-02T10:58:20;98320.44;;;17.75;100.00
52983;BME280;48698;45.736;13.926;2022-11-02T11:03:24;98324.09;;;18.12;100.00
52983;BME280;48698;45.736;13.926;2022-11-02T11:08:30;98320.66;;;17.97;100.00
52983;BME280;48698;45.736;13.926;2022-11-02T11:13:36;98248.25;;;17.31;100.00
52983;BME280;48698;45.736;13.926;2022-11-02T11:19:01;98211.47;;;17.71;100.00
52983;BME280;48698;45.736;13.926;2022-11-02T11:24:29;98304.91;;;18.41;100.00
52983;BME280;48698;45.736;13.926;2022-11-02T11:29:40;98284.56;;;18.86;100.00
52983;BME280;48698;45.736;13.926;2022-11-02T11:34:57;98210.25;;;18.36;100.00
52983;BME280;48698;45.736;13.926;2022-11-02T11:40:05;98194.31;;;18.58;100.00
52983;BME280;48698;45.736;13.926;2022-11-02T11:45:28;98267.34;;;18.89;100.00
52983;BME280;48698;45.736;13.926;2022-11-02T11:50:33;98037.97;;;17.68;100.00
52983;BME280;48698;45.736;13.926;2022-11-02T11:55:45;98255.22;;;18.34;100.00
52983;BME280;48698;45.736;13.926;2022-11-02T12:06:25;98249.78;;;18.72;100.00
52983;BME280;48698;45.736;13.926;2022-11-02T12:22:15;98109.41;;;18.31;100.00
52983;BME280;48698;45.736;13.926;2022-11-02T12:27:35;98115.28;;;18.12;100.00
52983;BME280;48698;45.736;13.926;2022-11-02T12:44:08;98215.59;;;18.96;100.00
52983;BME280;48698;45.736;13.926;2022-11-02T12:54:46;98192.63;;;18.92;100.00
52983;BME280;48698;45.736;13.926;2022-11-02T12:59:53;98017.59;;;17.77;100.00
52983;BME280;48698;45.736;13.926;2022-11-02T13:05:02;98093.03;;;18.34;100.00
52983;BME280;48698;45.736;13.926;2022-11-02T13:15:20;98202.88;;;18.64;100.00
52983;BME280;48698;45.736;13.926;2022-11-02T13:20:25;98207.75;;;18.58;100.00
52983;BME280;48698;45.736;13.926;2022-11-02T13:25:37;98213.53;;;18.65;100.00
52983;BME280;48698;45.736;13.926;2022-11-02T13:30:43;98076.97;;;17.97;100.00
52983;BME280;48698;45.736;13.926;2022-11-02T13:35:47;98075.41;;;17.82;100.00
52983;BME280;48698;45.736;13.926;2022-11-02T13:46:22;98077.28;;;17.44;100.00
52983;BME280;48698;45.736;13.926;2022-11-02T13:51:47;98225.16;;;18.17;100.00
52983;BME280;48698;45.736;13.926;2022-11-02T13:57:00;98218.84;;;18.05;100.00
52983;BME280;48698;45.736;13.926;2022-11-02T14:02:09;98049.53;;;16.94;100.00
52983;BME280;48698;45.736;13.926;2022-11-02T14:12:47;98144.63;;;17.41;100.00
52983;BME280;48698;45.736;13.926;2022-11-02T14:28:32;98249.72;;;17.62;100.00
52983;BME280;48698;45.736;13.926;2022-11-02T14:39:36;98190.09;;;16.79;100.00
52983;BME280;48698;45.736;13.926;2022-11-02T14:45:15;98260.16;;;17.14;100.00
52983;BME280;48698;45.736;13.926;2022-11-02T14:50:23;98088.75;;;15.91;100.00
52983;BME280;48698;45.736;13.926;2022-11-02T14:55:30;98222.84;;;16.58;100.00
52983;BME280;48698;45.736;13.926;2022-11-02T15:11:44;98125.16;;;15.67;100.00
52983;BME280;48698;45.736;13.926;2022-11-02T15:16:48;98149.31;;;15.94;100.00
52983;BME280;48698;45.736;13.926;2022-11-02T15:21:52;98248.66;;;16.32;100.00
52983;BME280;48698;45.736;13.926;2022-11-02T15:27:17;98174.59;;;15.47;100.00
52983;BME280;48698;45.736;13.926;2022-11-02T15:32:24;98146.94;;;15.05;100.00
52983;BME280;48698;45.736;13.926;2022-11-02T15:37:31;98286.16;;;15.17;100.00
52983;BME280;48698;45.736;13.926;2022-11-02T15:43:24;98195.16;;;14.28;100.00
52983;BME280;48698;45.736;13.926;2022-11-02T16:04:32;98253.31;;;13.59;100.00
52983;BME280;48698;45.736;13.926;2022-11-02T16:09:37;98271.84;;;13.62;100.00
52983;BME280;48698;45.736;13.926;2022-11-02T16:14:42;98326.13;;;14.11;100.00
52983;BME280;48698;45.736;13.926;2022-11-02T16:20:24;98308.31;;;13.78;100.00
52983;BME280;48698;45.736;13.926;2022-11-02T16:30:41;98124.47;;;12.39;100.00
52983;BME280;48698;45.736;13.926;2022-11-02T16:35:44;98137.13;;;12.17;100.00
52983;BME280;48698;45.736;13.926;2022-11-02T16:40:48;98209.59;;;12.94;100.00
52983;BME280;48698;45.736;13.926;2022-11-02T16:45:59;98343.03;;;13.61;100.00
52983;BME280;48698;45.736;13.926;2022-11-02T16:56:27;98345.56;;;13.47;100.00
52983;BME280;48698;45.736;13.926;2022-11-02T17:01:36;98133.00;;;12.29;100.00
52983;BME280;48698;45.736;13.926;2022-11-02T17:06:41;98370.00;;;13.72;100.00
52983;BME280;48698;45.736;13.926;2022-11-02T17:11:45;98220.41;;;12.74;100.00
52983;BME280;48698;45.736;13.926;2022-11-02T17:17:03;98210.69;;;12.56;100.00
52983;BME280;48698;45.736;13.926;2022-11-02T17:22:21;98314.66;;;13.07;100.00
52983;BME280;48698;45.736;13.926;2022-11-02T17:27:29;98204.56;;;12.18;100.00
52983;BME280;48698;45.736;13.926;2022-11-02T17:32:43;98389.31;;;13.26;100.00
52983;BME280;48698;45.736;13.926;2022-11-02T17:37:47;98179.72;;;11.81;100.00
52983;BME280;48698;45.736;13.926;2022-11-02T17:42:55;98396.56;;;13.41;100.00
52983;BME280;48698;45.736;13.926;2022-11-02T17:48:03;98416.38;;;13.18;100.00
52983;BME280;48698;45.736;13.926;2022-11-02T17:53:10;98353.34;;;12.99;100.00
52983;BME280;48698;45.736;13.926;2022-11-02T17:58:15;98212.50;;;12.01;100.00
52983;BME280;48698;45.736;13.926;2022-11-02T18:03:19;98328.38;;;13.00;100.00
52983;BME280;48698;45.736;13.926;2022-11-02T18:08:32;98415.56;;;13.69;100.00
52983;BME280;48698;45.736;13.926;2022-11-02T18:13:56;98311.25;;;12.69;100.00
52983;BME280;48698;45.736;13.926;2022-11-02T18:18:59;98332.78;;;12.65;100.00
52983;BME280;48698;45.736;13.926;2022-11-02T18:24:13;98241.66;;;12.39;100.00
52983;BME280;48698;45.736;13.926;2022-11-02T18:29:16;98305.63;;;12.75;100.00
52983;BME280;48698;45.736;13.926;2022-11-02T18:34:20;98304.97;;;12.70;100.00
52983;BME280;48698;45.736;13.926;2022-11-02T18:39:24;98291.38;;;12.93;100.00
52983;BME280;48698;45.736;13.926;2022-11-02T18:44:28;98334.63;;;13.17;100.00
52983;BME280;48698;45.736;13.926;2022-11-02T18:49:32;98343.91;;;12.91;100.00
52983;BME280;48698;45.736;13.926;2022-11-02T18:54:35;98426.75;;;13.24;100.00
52983;BME280;48698;45.736;13.926;2022-11-02T18:59:39;98396.78;;;13.01;100.00
52983;BME280;48698;45.736;13.926;2022-11-02T19:04:42;98423.81;;;13.12;100.00
52983;BME280;48698;45.736;13.926;2022-11-02T19:09:46;98382.03;;;13.12;100.00
52983;BME280;48698;45.736;13.926;2022-11-02T19:14:50;98351.66;;;12.96;100.00
52983;BME280;48698;45.736;13.926;2022-11-02T19:19:56;98316.44;;;12.89;100.00
52983;BME280;48698;45.736;13.926;2022-11-02T19:25:00;98397.81;;;13.51;100.00
52983;BME280;48698;45.736;13.926;2022-11-02T19:30:04;98403.88;;;13.55;100.00
52983;BME280;48698;45.736;13.926;2022-11-02T19:35:08;98359.00;;;13.45;100.00
52983;BME280;48698;45.736;13.926;2022-11-02T19:40:12;98280.06;;;12.71;100.00
52983;BME280;48698;45.736;13.926;2022-11-02T19:45:15;98397.13;;;13.65;100.00
52983;BME280;48698;45.736;13.926;2022-11-02T19:50:20;98395.63;;;13.42;100.00
52983;BME280;48698;45.736;13.926;2022-11-02T19:55:23;98313.25;;;13.00;100.00
52983;BME280;48698;45.736;13.926;2022-11-02T20:00:31;98280.31;;;12.84;100.00
52983;BME280;48698;45.736;13.926;2022-11-02T20:05:34;98401.09;;;13.39;100.00
52983;BME280;48698;45.736;13.926;2022-11-02T20:10:38;98380.78;;;13.36;100.00
52983;BME280;48698;45.736;13.926;2022-11-02T20:15:42;98318.34;;;12.87;100.00
52983;BME280;48698;45.736;13.926;2022-11-02T20:20:46;98350.72;;;13.33;100.00
52983;BME280;48698;45.736;13.926;2022-11-02T20:25:49;98339.59;;;13.25;100.00
52983;BME280;48698;45.736;13.926;2022-11-02T20:30:53;98314.16;;;13.18;100.00
52983;BME280;48698;45.736;13.926;2022-11-02T20:35:57;98244.47;;;13.07;100.00
52983;BME280;48698;45.736;13.926;2022-11-02T20:41:11;98367.81;;;13.80;100.00
52983;BME280;48698;45.736;13.926;2022-11-02T20:46:18;98335.41;;;13.54;100.00
52983;BME280;48698;45.736;13.926;2022-11-02T20:51:39;98210.84;;;12.70;100.00
52983;BME280;48698;45.736;13.926;2022-11-02T20:56:42;98301.56;;;13.03;100.00
52983;BME280;48698;45.736;13.926;2022-11-02T21:01:48;98353.94;;;13.39;100.00
52983;BME280;48698;45.736;13.926;2022-11-02T21:06:52;98378.13;;;13.54;100.00
52983;BME280;48698;45.736;13.926;2022-11-02T21:11:56;98351.59;;;13.33;100.00
52983;BME280;48698;45.736;13.926;2022-11-02T21:17:18;98417.50;;;13.66;100.00
52983;BME280;48698;45.736;13.926;2022-11-02T21:22:22;98373.47;;;13.40;100.00
52983;BME280;48698;45.736;13.926;2022-11-02T21:27:26;98419.09;;;13.70;100.00
52983;BME280;48698;45.736;13.926;2022-11-02T21:32:29;98419.63;;;13.59;100.00
52983;BME280;48698;45.736;13.926;2022-11-02T21:37:33;98322.22;;;12.99;100.00
52983;BME280;48698;45.736;13.926;2022-11-02T21:42:37;98298.50;;;12.93;100.00
52983;BME280;48698;45.736;13.926;2022-11-02T21:47:40;98341.16;;;13.29;100.00
52983;BME280;48698;45.736;13.926;2022-11-02T21:52:44;98324.19;;;13.13;100.00
52983;BME280;48698;45.736;13.926;2022-11-02T21:57:47;98393.31;;;13.69;100.00
52983;BME280;48698;45.736;13.926;2022-11-02T22:02:50;98368.78;;;13.45;100.00
52983;BME280;48698;45.736;13.926;2022-11-02T22:08:03;98380.47;;;13.60;100.00
52983;BME280;48698;45.736;13.926;2022-11-02T22:13:37;98376.78;;;13.45;100.00
52983;BME280;48698;45.736;13.926;2022-11-02T22:18:44;98321.78;;;12.89;100.00
52983;BME280;48698;45.736;13.926;2022-11-02T22:23:48;98228.28;;;12.41;100.00
52983;BME280;48698;45.736;13.926;2022-11-02T22:28:53;98381.09;;;13.30;100.00
52983;BME280;48698;45.736;13.926;2022-11-02T22:34:01;98309.09;;;12.94;100.00
52983;BME280;48698;45.736;13.926;2022-11-02T22:39:08;98374.41;;;13.39;100.00
52983;BME280;48698;45.736;13.926;2022-11-02T22:44:16;98364.75;;;13.19;100.00
52983;BME280;48698;45.736;13.926;2022-11-02T22:49:20;98230.84;;;12.25;100.00
52983;BME280;48698;45.736;13.926;2022-11-02T22:54:28;98362.34;;;13.15;100.00
52983;BME280;48698;45.736;13.926;2022-11-02T22:59:33;98323.97;;;12.81;100.00
52983;BME280;48698;45.736;13.926;2022-11-02T23:04:36;98313.66;;;12.92;100.00
52983;BME280;48698;45.736;13.926;2022-11-02T23:09:40;98373.03;;;13.32;100.00
52983;BME280;48698;45.736;13.926;2022-11-02T23:14:44;98356.38;;;13.27;100.00
52983;BME280;48698;45.736;13.926;2022-11-02T23:19:48;98291.06;;;12.82;100.00
52983;BME280;48698;45.736;13.926;2022-11-02T23:24:59;98227.09;;;12.47;100.00
52983;BME280;48698;45.736;13.926;2022-11-02T23:30:16;98337.69;;;13.27;100.00
52983;BME280;48698;45.736;13.926;2022-11-02T23:35:38;98281.53;;;13.13;100.00
52983;BME280;48698;45.736;13.926;2022-11-02T23:41:00;98328.44;;;13.51;100.00
52983;BME280;48698;45.736;13.926;2022-11-02T23:46:05;98303.00;;;13.44;100.00
52983;BME280;48698;45.736;13.926;2022-11-02T23:51:09;98361.63;;;13.63;100.00
52983;BME280;48698;45.736;13.926;2022-11-02T23:56:32;98348.31;;;13.45;100.00
